createdAt,value
2023-01-27T00:01:18.865Z,14.15
2023-01-27T00:06:26.769Z,15.40
2023-01-27T00:11:50.818Z,14.75
2023-01-27T00:16:57.463Z,14.02
2023-01-27T00:22:24.374Z,14.52
2023-01-27T00:27:30.607Z,13.75
2023-01-27T00:32:56.839Z,14.52
2023-01-27T00:38:04.975Z,15.63
2023-01-27T00:43:13.597Z,14.27
2023-01-27T00:48:20.164Z,14.38
2023-01-27T00:53:28.214Z,14.48
2023-01-27T00:58:35.972Z,13.57
2023-01-27T01:03:44.840Z,14.57
2023-01-27T01:08:52.899Z,13.23
2023-01-27T01:14:00.260Z,13.33
2023-01-27T01:19:06.846Z,13.95
2023-01-27T01:24:16.583Z,14.03
2023-01-27T01:29:23.193Z,15.90
2023-01-27T01:34:29.846Z,15.98
2023-01-27T01:39:37.986Z,15.23
2023-01-27T01:44:47.157Z,14.15
2023-01-27T01:49:53.632Z,14.70
2023-01-27T01:55:01.689Z,14.15
2023-01-27T02:00:12.279Z,14.80
2023-01-27T02:05:29.321Z,15.07
2023-01-27T02:10:38.290Z,14.52
2023-01-27T02:15:44.749Z,15.38
2023-01-27T02:20:54.709Z,15.63
2023-01-27T02:26:10.541Z,15.45
2023-01-27T02:31:18.389Z,17.30
2023-01-27T02:36:25.530Z,15.02
2023-01-27T02:41:39.134Z,14.38
2023-01-27T02:46:45.824Z,15.93
2023-01-27T02:51:52.472Z,15.95
2023-01-27T02:57:00.496Z,15.93
2023-01-27T03:02:08.976Z,15.73
2023-01-27T03:07:15.242Z,15.85
2023-01-27T03:12:22.898Z,17.25
2023-01-27T03:17:48.825Z,15.38
2023-01-27T03:22:55.227Z,15.73
2023-01-27T03:28:06.092Z,15.52
2023-01-27T03:33:31.340Z,16.52
2023-01-27T03:38:59.807Z,16.70
2023-01-27T03:44:26.211Z,16.48
2023-01-27T03:49:32.414Z,17.73
2023-01-27T03:54:39.200Z,16.23
2023-01-27T03:59:47.340Z,15.13
2023-01-27T04:05:11.672Z,18.25
2023-01-27T04:10:18.856Z,17.67
2023-01-27T04:15:26.858Z,18.77
2023-01-27T04:20:33.262Z,15.77
2023-01-27T04:25:40.604Z,17.70
2023-01-27T04:30:50.189Z,18.92
2023-01-27T04:36:00.666Z,21.08
2023-01-27T04:41:07.523Z,18.30
2023-01-27T04:46:15.249Z,20.63
2023-01-27T04:51:24.546Z,18.92
2023-01-27T04:56:33.756Z,19.10
2023-01-27T05:01:41.753Z,18.30
2023-01-27T05:06:48.211Z,20.25
2023-01-27T05:11:54.377Z,19.67
2023-01-27T05:17:02.419Z,18.92
2023-01-27T05:22:09.586Z,19.37
2023-01-27T05:27:16.056Z,18.30
2023-01-27T05:32:23.856Z,18.55
2023-01-27T05:37:30.245Z,19.40
2023-01-27T05:42:38.382Z,18.30
2023-01-27T05:47:49.934Z,18.27
2023-01-27T05:52:57.048Z,17.58
2023-01-27T05:58:04.291Z,18.55
2023-01-27T06:03:12.366Z,19.10
2023-01-27T06:08:19.008Z,18.67
2023-01-27T06:13:28.014Z,19.08
2023-01-27T06:18:36.073Z,17.80
2023-01-27T06:23:43.383Z,13.70
2023-01-27T06:28:50.280Z,20.38
2023-01-27T06:33:59.516Z,17.90
2023-01-27T06:39:06.165Z,20.30
2023-01-27T06:44:12.708Z,21.63
2023-01-27T06:49:20.663Z,22.20
2023-01-27T06:54:27.279Z,21.90
2023-01-27T06:59:33.849Z,25.50
2023-01-27T07:04:41.619Z,22.05
2023-01-27T07:09:52.693Z,25.15
2023-01-27T07:14:59.562Z,24.85
2023-01-27T07:20:10.127Z,22.98
2023-01-27T07:25:16.662Z,22.20
2023-01-27T07:30:23.393Z,22.90
2023-01-27T07:35:31.224Z,20.05
2023-01-27T07:54:43.621Z,21.00
2023-01-27T07:59:53.969Z,23.20
2023-01-27T08:05:00.207Z,22.73
2023-01-27T08:10:08.697Z,23.48
2023-01-27T08:15:18.425Z,21.70
2023-01-27T08:20:29.269Z,23.45
2023-01-27T08:25:37.249Z,23.85
2023-01-27T08:30:43.816Z,23.73
2023-01-27T08:35:51.245Z,21.15
2023-01-27T08:41:00.242Z,21.95
2023-01-27T08:46:07.471Z,19.67
2023-01-27T08:51:15.884Z,22.40
2023-01-27T08:56:24.324Z,21.38
2023-01-27T09:01:30.749Z,20.45
2023-01-27T09:06:37.427Z,20.00
2023-01-27T09:11:47.678Z,19.58
2023-01-27T09:16:54.190Z,20.70
2023-01-27T09:22:00.695Z,21.52
2023-01-27T09:27:08.803Z,19.88
2023-01-27T09:32:15.536Z,22.30
2023-01-27T09:37:22.176Z,21.95
2023-01-27T09:42:54.747Z,21.67
2023-01-27T09:48:26.355Z,21.77
2023-01-27T09:54:09.538Z,22.05
2023-01-27T09:59:40.458Z,23.45
2023-01-27T10:05:21.693Z,20.55
2023-01-27T10:10:51.128Z,22.67
2023-01-27T10:16:23.601Z,22.48
2023-01-27T10:21:46.155Z,20.98
2023-01-27T10:26:57.415Z,24.20
2023-01-27T10:32:10.778Z,20.42
2023-01-27T10:37:31.142Z,20.55
2023-01-27T10:42:46.919Z,20.27
2023-01-27T10:48:17.321Z,21.83
2023-01-27T10:53:33.897Z,19.92
2023-01-27T10:58:51.525Z,21.15
2023-01-27T11:04:05.749Z,22.52
2023-01-27T11:09:26.451Z,22.15
2023-01-27T11:14:39.546Z,21.27
2023-01-27T11:19:58.531Z,22.13
2023-01-27T11:30:29.870Z,21.90
2023-01-27T11:35:38.015Z,22.27
2023-01-27T11:40:46.948Z,20.42
2023-01-27T12:03:13.045Z,21.70
2023-01-27T12:08:42.048Z,23.60
2023-01-27T12:13:55.508Z,25.55
2023-01-27T12:19:07.119Z,24.67
2023-01-27T12:24:28.292Z,23.77
2023-01-27T12:29:44.546Z,23.77
2023-01-27T12:34:59.056Z,25.58
2023-01-27T12:40:09.232Z,25.30
2023-01-27T12:45:26.844Z,24.63
2023-01-27T12:50:38.475Z,24.52
2023-01-27T12:55:51.308Z,26.00
2023-01-27T13:00:58.380Z,26.10
2023-01-27T13:06:07.466Z,25.60
2023-01-27T13:11:15.865Z,25.48
2023-01-27T13:16:30.101Z,23.90
2023-01-27T13:21:41.151Z,24.45
2023-01-27T13:26:48.844Z,23.83
2023-01-27T13:32:00.324Z,26.77
2023-01-27T13:37:16.604Z,23.38
2023-01-27T13:42:31.963Z,23.88
2023-01-27T13:47:50.718Z,23.33
2023-01-27T13:53:01.433Z,20.92
2023-01-27T13:58:13.551Z,21.67
2023-01-27T14:03:48.176Z,20.23
2023-01-27T14:09:13.129Z,22.38
2023-01-27T14:14:43.655Z,24.90
2023-01-27T14:20:25.112Z,23.05
2023-01-27T14:25:42.092Z,20.60
2023-01-27T14:30:57.291Z,20.33
2023-01-27T14:36:18.736Z,18.27
2023-01-27T14:41:35.889Z,18.40
2023-01-27T14:47:08.824Z,18.15
2023-01-27T14:52:32.353Z,18.23
2023-01-27T14:57:49.400Z,19.52
2023-01-27T15:03:11.105Z,18.13
2023-01-27T15:08:28.558Z,18.42
2023-01-27T15:13:56.499Z,17.23
2023-01-27T15:19:39.515Z,14.23
2023-01-27T15:25:05.911Z,12.90
2023-01-27T15:30:26.958Z,14.05
2023-01-27T15:35:38.353Z,12.82
2023-01-27T15:41:13.273Z,13.43
2023-01-27T15:46:32.629Z,16.10
2023-01-27T15:51:40.191Z,13.68
2023-01-27T15:56:53.888Z,13.00
2023-01-27T16:02:17.427Z,14.32
2023-01-27T16:07:32.670Z,13.20
2023-01-27T16:12:45.345Z,12.55
2023-01-27T16:18:29.292Z,11.02
2023-01-27T16:23:50.687Z,11.48
2023-01-27T16:29:25.682Z,10.50
2023-01-27T16:34:41.717Z,10.73
2023-01-27T16:39:55.460Z,11.73
2023-01-27T16:45:10.249Z,11.32
2023-01-27T16:50:42.043Z,10.77
2023-01-27T16:56:00.474Z,11.38
2023-01-27T17:01:07.920Z,11.37
2023-01-27T17:06:19.073Z,12.40
2023-01-27T17:11:34.381Z,11.95
2023-01-27T17:16:45.188Z,13.98
2023-01-27T17:21:59.071Z,14.15
2023-01-27T17:27:11.923Z,15.35
2023-01-27T17:32:24.872Z,13.57
2023-01-27T17:37:35.401Z,13.27
2023-01-27T17:42:43.014Z,13.38
2023-01-27T17:47:50.731Z,14.20
2023-01-27T17:53:00.837Z,15.55
2023-01-27T17:58:12.523Z,15.30
2023-01-27T18:03:25.847Z,14.75
2023-01-27T18:08:39.069Z,14.05
2023-01-27T18:13:49.467Z,13.18
2023-01-27T18:19:10.670Z,14.73
2023-01-27T18:24:23.784Z,13.63
2023-01-27T18:29:39.500Z,14.32
2023-01-27T18:34:56.613Z,13.90
2023-01-27T19:12:19.100Z,13.52
2023-01-27T19:17:30.332Z,13.88
2023-01-27T19:22:41.604Z,15.70
2023-01-27T19:27:58.298Z,14.93
2023-01-27T19:33:22.430Z,17.70
2023-01-27T19:38:31.979Z,20.95
2023-01-27T19:43:42.516Z,23.10
2023-01-27T19:48:52.871Z,20.27
2023-01-27T19:54:01.370Z,15.95
2023-01-27T19:59:15.899Z,14.13
2023-01-27T20:04:24.977Z,12.77
2023-01-27T20:09:33.732Z,13.05
2023-01-27T20:14:44.308Z,14.20
2023-01-27T20:19:54.864Z,13.63
2023-01-27T20:25:16.845Z,14.25
2023-01-27T20:31:04.802Z,14.10
2023-01-27T20:36:53.278Z,14.50
2023-01-27T20:42:14.842Z,14.30
2023-01-27T20:48:28.553Z,15.18
2023-01-27T20:54:11.581Z,16.23
2023-01-27T21:00:13.351Z,16.00
2023-01-27T21:05:59.749Z,18.67
2023-01-27T21:11:30.773Z,16.75
2023-01-27T21:29:09.810Z,9.25
2023-01-27T21:35:16.809Z,9.38
2023-01-27T21:48:05.082Z,8.25
2023-01-27T21:54:03.015Z,9.13
2023-01-27T22:00:34.676Z,7.55
2023-01-27T22:12:37.343Z,7.55
2023-01-27T22:17:58.366Z,7.55
2023-01-27T22:24:07.482Z,9.85
2023-01-27T22:30:06.559Z,8.48
2023-01-27T22:35:46.000Z,9.80
2023-01-27T22:41:38.055Z,8.45
2023-01-27T22:47:56.135Z,8.80
2023-01-27T22:53:31.016Z,8.75
2023-01-27T22:58:50.243Z,8.93
2023-01-27T23:04:42.683Z,8.48
2023-01-27T23:09:58.247Z,8.85
2023-01-27T23:15:57.432Z,8.98
2023-01-27T23:21:41.292Z,8.25
2023-01-27T23:26:59.560Z,8.27
2023-01-27T23:32:09.300Z,9.32
2023-01-27T23:37:18.217Z,9.05
2023-01-27T23:42:28.914Z,8.75
2023-01-27T23:48:11.904Z,7.90
2023-01-27T23:53:26.415Z,7.70
2023-01-27T23:58:45.986Z,7.45
